sensor_id;sensor_type;location;lat;lon;timestamp;pressure;altitude;pressure_sealevel;temperature
81177;BMP280;74095;48.270;14.200;2024-02-21T00:00:49;98967.38;;;8.09
81177;BMP280;74095;48.270;14.200;2024-02-21T00:03:15;98958.78;;;8.02
81177;BMP280;74095;48.270;14.200;2024-02-21T00:05:41;98964.72;;;8.09
81177;BMP280;74095;48.270;14.200;2024-02-21T00:08:07;98953.81;;;8.11
81177;BMP280;74095;48.270;14.200;2024-02-21T00:10:33;98957.28;;;8.11
81177;BMP280;74095;48.270;14.200;2024-02-21T00:12:59;98956.78;;;8.14
81177;BMP280;74095;48.270;14.200;2024-02-21T00:15:27;98953.34;;;8.19
81177;BMP280;74095;48.270;14.200;2024-02-21T00:17:53;98943.25;;;8.21
81177;BMP280;74095;48.270;14.200;2024-02-21T00:20:19;98947.09;;;8.30
81177;BMP280;74095;48.270;14.200;2024-02-21T00:22:45;98943.91;;;8.33
81177;BMP280;74095;48.270;14.200;2024-02-21T00:25:11;98946.81;;;8.32
81177;BMP280;74095;48.270;14.200;2024-02-21T00:27:38;98940.72;;;8.31
81177;BMP280;74095;48.270;14.200;2024-02-21T00:30:05;98942.03;;;8.29
81177;BMP280;74095;48.270;14.200;2024-02-21T00:32:31;98936.72;;;8.29
81177;BMP280;74095;48.270;14.200;2024-02-21T00:35:00;98937.75;;;8.28
81177;BMP280;74095;48.270;14.200;2024-02-21T00:37:27;98941.50;;;8.32
81177;BMP280;74095;48.270;14.200;2024-02-21T00:39:54;98928.75;;;8.34
81177;BMP280;74095;48.270;14.200;2024-02-21T00:42:20;98930.38;;;8.35
81177;BMP280;74095;48.270;14.200;2024-02-21T00:44:46;98923.44;;;8.34
81177;BMP280;74095;48.270;14.200;2024-02-21T00:47:13;98920.75;;;8.29
81177;BMP280;74095;48.270;14.200;2024-02-21T00:49:39;98923.94;;;8.26
81177;BMP280;74095;48.270;14.200;2024-02-21T00:52:04;98922.84;;;8.27
81177;BMP280;74095;48.270;14.200;2024-02-21T00:54:30;98920.75;;;8.29
81177;BMP280;74095;48.270;14.200;2024-02-21T00:56:56;98927.06;;;8.23
81177;BMP280;74095;48.270;14.200;2024-02-21T00:59:22;98926.06;;;8.29
81177;BMP280;74095;48.270;14.200;2024-02-21T01:01:48;98907.13;;;8.20
81177;BMP280;74095;48.270;14.200;2024-02-21T01:04:14;98906.22;;;8.09
81177;BMP280;74095;48.270;14.200;2024-02-21T01:06:40;98921.09;;;8.10
81177;BMP280;74095;48.270;14.200;2024-02-21T01:09:08;98922.50;;;8.18
81177;BMP280;74095;48.270;14.200;2024-02-21T01:11:34;98910.22;;;8.12
81177;BMP280;74095;48.270;14.200;2024-02-21T01:14:00;98913.66;;;8.07
81177;BMP280;74095;48.270;14.200;2024-02-21T01:16:26;98923.28;;;8.13
81177;BMP280;74095;48.270;14.200;2024-02-21T01:18:52;98917.38;;;8.11
81177;BMP280;74095;48.270;14.200;2024-02-21T01:21:18;98915.53;;;8.12
81177;BMP280;74095;48.270;14.200;2024-02-21T01:23:44;98923.31;;;8.18
81177;BMP280;74095;48.270;14.200;2024-02-21T01:26:09;98920.41;;;8.20
81177;BMP280;74095;48.270;14.200;2024-02-21T01:28:38;98916.44;;;8.23
81177;BMP280;74095;48.270;14.200;2024-02-21T01:31:04;98913.53;;;8.24
81177;BMP280;74095;48.270;14.200;2024-02-21T01:33:30;98912.78;;;8.29
81177;BMP280;74095;48.270;14.200;2024-02-21T01:36:04;98902.72;;;8.36
81177;BMP280;74095;48.270;14.200;2024-02-21T01:38:30;98868.28;;;8.19
81177;BMP280;74095;48.270;14.200;2024-02-21T01:40:57;98897.94;;;8.38
81177;BMP280;74095;48.270;14.200;2024-02-21T01:43:23;98889.44;;;8.41
81177;BMP280;74095;48.270;14.200;2024-02-21T01:45:50;98892.13;;;8.41
81177;BMP280;74095;48.270;14.200;2024-02-21T01:48:18;98892.63;;;8.38
81177;BMP280;74095;48.270;14.200;2024-02-21T01:50:49;98886.72;;;8.31
81177;BMP280;74095;48.270;14.200;2024-02-21T01:53:17;98892.03;;;8.31
81177;BMP280;74095;48.270;14.200;2024-02-21T01:55:45;98886.72;;;8.31
81177;BMP280;74095;48.270;14.200;2024-02-21T01:58:15;98877.09;;;8.25
81177;BMP280;74095;48.270;14.200;2024-02-21T02:00:42;98874.97;;;8.27
81177;BMP280;74095;48.270;14.200;2024-02-21T02:03:10;98876.50;;;8.17
81177;BMP280;74095;48.270;14.200;2024-02-21T02:05:44;98870.91;;;8.14
81177;BMP280;74095;48.270;14.200;2024-02-21T02:08:10;98871.94;;;8.13
81177;BMP280;74095;48.270;14.200;2024-02-21T02:10:37;98867.91;;;8.10
81177;BMP280;74095;48.270;14.200;2024-02-21T02:13:03;98864.69;;;8.03
81177;BMP280;74095;48.270;14.200;2024-02-21T02:15:46;98857.69;;;7.92
81177;BMP280;74095;48.270;14.200;2024-02-21T02:18:13;98860.38;;;7.97
81177;BMP280;74095;48.270;14.200;2024-02-21T02:20:40;98856.38;;;7.95
81177;BMP280;74095;48.270;14.200;2024-02-21T02:23:31;98856.38;;;7.95
81177;BMP280;74095;48.270;14.200;2024-02-21T02:25:57;98849.16;;;7.90
81177;BMP280;74095;48.270;14.200;2024-02-21T02:28:23;98843.22;;;7.83
81177;BMP280;74095;48.270;14.200;2024-02-21T02:30:50;98835.75;;;7.75
81177;BMP280;74095;48.270;14.200;2024-02-21T02:33:16;98838.44;;;7.80
81177;BMP280;74095;48.270;14.200;2024-02-21T02:35:45;98841.09;;;7.80
81177;BMP280;74095;48.270;14.200;2024-02-21T02:38:11;98835.53;;;7.82
81177;BMP280;74095;48.270;14.200;2024-02-21T02:40:39;98837.84;;;7.78
81177;BMP280;74095;48.270;14.200;2024-02-21T02:43:06;98831.72;;;7.72
81177;BMP280;74095;48.270;14.200;2024-02-21T02:45:32;98828.50;;;7.70
81177;BMP280;74095;48.270;14.200;2024-02-21T02:47:58;98834.31;;;7.67
81177;BMP280;74095;48.270;14.200;2024-02-21T02:50:25;98821.25;;;7.66
81177;BMP280;74095;48.270;14.200;2024-02-21T02:52:52;98824.47;;;7.68
81177;BMP280;74095;48.270;14.200;2024-02-21T02:55:18;98814.88;;;7.62
81177;BMP280;74095;48.270;14.200;2024-02-21T02:57:44;98812.81;;;7.69
81177;BMP280;74095;48.270;14.200;2024-02-21T03:00:11;98812.34;;;7.77
81177;BMP280;74095;48.270;14.200;2024-02-21T03:02:40;98813.47;;;7.81
81177;BMP280;74095;48.270;14.200;2024-02-21T03:05:18;98812.44;;;7.87
81177;BMP280;74095;48.270;14.200;2024-02-21T03:07:49;98808.53;;;7.95
81177;BMP280;74095;48.270;14.200;2024-02-21T03:10:16;98805.34;;;7.98
81177;BMP280;74095;48.270;14.200;2024-02-21T03:12:43;98807.22;;;7.97
81177;BMP280;74095;48.270;14.200;2024-02-21T03:15:14;98800.56;;;7.95
81177;BMP280;74095;48.270;14.200;2024-02-21T03:17:44;98810.41;;;7.99
81177;BMP280;74095;48.270;14.200;2024-02-21T03:20:13;98797.91;;;7.95
81177;BMP280;74095;48.270;14.200;2024-02-21T03:22:43;98793.91;;;7.92
81177;BMP280;74095;48.270;14.200;2024-02-21T03:25:11;98791.25;;;7.97
81177;BMP280;74095;48.270;14.200;2024-02-21T03:27:42;98797.16;;;8.04
81177;BMP280;74095;48.270;14.200;2024-02-21T03:30:14;98806.22;;;8.03
81177;BMP280;74095;48.270;14.200;2024-02-21T03:32:44;98790.22;;;7.98
81177;BMP280;74095;48.270;14.200;2024-02-21T03:35:13;98795.25;;;8.00
81177;BMP280;74095;48.270;14.200;2024-02-21T03:37:42;98791.78;;;7.99
81177;BMP280;74095;48.270;14.200;2024-02-21T03:40:14;98794.78;;;8.03
81177;BMP280;74095;48.270;14.200;2024-02-21T03:42:45;98788.34;;;7.99
81177;BMP280;74095;48.270;14.200;2024-02-21T03:45:15;98793.16;;;8.02
81177;BMP280;74095;48.270;14.200;2024-02-21T03:47:45;98784.84;;;7.93
81177;BMP280;74095;48.270;14.200;2024-02-21T03:50:14;98786.31;;;7.79
81177;BMP280;74095;48.270;14.200;2024-02-21T03:52:43;98795.09;;;7.80
81177;BMP280;74095;48.270;14.200;2024-02-21T03:55:14;98771.88;;;7.65
81177;BMP280;74095;48.270;14.200;2024-02-21T03:57:46;98786.81;;;7.71
81177;BMP280;74095;48.270;14.200;2024-02-21T04:00:18;98791.63;;;7.74
81177;BMP280;74095;48.270;14.200;2024-02-21T04:02:51;98790.00;;;7.73
81177;BMP280;74095;48.270;14.200;2024-02-21T04:05:23;98785.94;;;7.65
81177;BMP280;74095;48.270;14.200;2024-02-21T04:07:53;98792.59;;;7.68
81177;BMP280;74095;48.270;14.200;2024-02-21T04:10:23;98788.34;;;7.67
81177;BMP280;74095;48.270;14.200;2024-02-21T04:12:55;98789.13;;;7.62
81177;BMP280;74095;48.270;14.200;2024-02-21T04:15:25;98782.47;;;7.65
81177;BMP280;74095;48.270;14.200;2024-02-21T04:17:55;98785.13;;;7.65
81177;BMP280;74095;48.270;14.200;2024-02-21T04:20:26;98767.00;;;7.57
81177;BMP280;74095;48.270;14.200;2024-02-21T04:22:55;98782.75;;;7.63
81177;BMP280;74095;48.270;14.200;2024-02-21T04:25:24;98781.94;;;7.63
81177;BMP280;74095;48.270;14.200;2024-02-21T04:27:56;98768.84;;;7.56
81177;BMP280;74095;48.270;14.200;2024-02-21T04:30:26;98771.50;;;7.56
81177;BMP280;74095;48.270;14.200;2024-02-21T04:32:54;98766.41;;;7.50
81177;BMP280;74095;48.270;14.200;2024-02-21T04:35:22;98765.34;;;7.51
81177;BMP280;74095;48.270;14.200;2024-02-21T04:37:52;98770.44;;;7.52
81177;BMP280;74095;48.270;14.200;2024-02-21T04:40:21;98778.66;;;7.56
81177;BMP280;74095;48.270;14.200;2024-02-21T04:42:50;98768.53;;;7.48
81177;BMP280;74095;48.270;14.200;2024-02-21T04:45:22;98763.75;;;7.50
81177;BMP280;74095;48.270;14.200;2024-02-21T04:47:54;98762.66;;;7.46
81177;BMP280;74095;48.270;14.200;2024-02-21T04:50:24;98763.22;;;7.48
81177;BMP280;74095;48.270;14.200;2024-02-21T04:52:56;98755.78;;;7.50
81177;BMP280;74095;48.270;14.200;2024-02-21T04:55:28;98755.19;;;7.43
81177;BMP280;74095;48.270;14.200;2024-02-21T04:57:57;98752.53;;;7.43
81177;BMP280;74095;48.270;14.200;2024-02-21T05:00:27;98754.09;;;7.44
81177;BMP280;74095;48.270;14.200;2024-02-21T05:03:00;98764.72;;;7.44
81177;BMP280;74095;48.270;14.200;2024-02-21T05:05:32;98749.84;;;7.38
81177;BMP280;74095;48.270;14.200;2024-02-21T05:08:05;98750.88;;;7.37
81177;BMP280;74095;48.270;14.200;2024-02-21T05:10:38;98742.06;;;7.31
81177;BMP280;74095;48.270;14.200;2024-02-21T05:13:08;98721.59;;;7.27
81177;BMP280;74095;48.270;14.200;2024-02-21T05:15:37;98748.03;;;7.43
81177;BMP280;74095;48.270;14.200;2024-02-21T05:18:08;98742.19;;;7.41
81177;BMP280;74095;48.270;14.200;2024-02-21T05:20:41;98734.97;;;7.42
81177;BMP280;74095;48.270;14.200;2024-02-21T05:23:13;98736.88;;;7.41
81177;BMP280;74095;48.270;14.200;2024-02-21T05:25:45;98740.25;;;7.37
81177;BMP280;74095;48.270;14.200;2024-02-21T05:28:15;98723.78;;;7.35
81177;BMP280;74095;48.270;14.200;2024-02-21T05:30:46;98716.31;;;7.32
81177;BMP280;74095;48.270;14.200;2024-02-21T05:33:15;98728.63;;;7.43
81177;BMP280;74095;48.270;14.200;2024-02-21T05:35:48;98729.44;;;7.43
81177;BMP280;74095;48.270;14.200;2024-02-21T05:38:18;98721.69;;;7.37
81177;BMP280;74095;48.270;14.200;2024-02-21T05:40:47;98727.97;;;7.31
81177;BMP280;74095;48.270;14.200;2024-02-21T05:43:18;98728.75;;;7.26
81177;BMP280;74095;48.270;14.200;2024-02-21T05:45:48;98726.38;;;7.30
81177;BMP280;74095;48.270;14.200;2024-02-21T05:48:16;98740.72;;;7.29
81177;BMP280;74095;48.270;14.200;2024-02-21T05:50:45;98727.06;;;7.20
81177;BMP280;74095;48.270;14.200;2024-02-21T05:53:16;98727.31;;;7.18
81177;BMP280;74095;48.270;14.200;2024-02-21T05:55:48;98732.38;;;7.20
81177;BMP280;74095;48.270;14.200;2024-02-21T05:58:17;98732.38;;;7.20
81177;BMP280;74095;48.270;14.200;2024-02-21T06:00:45;98721.25;;;7.23
81177;BMP280;74095;48.270;14.200;2024-02-21T06:03:15;98721.25;;;7.23
81177;BMP280;74095;48.270;14.200;2024-02-21T06:05:48;98721.47;;;7.16
81177;BMP280;74095;48.270;14.200;2024-02-21T06:08:21;98706.03;;;7.13
81177;BMP280;74095;48.270;14.200;2024-02-21T06:10:53;98708.69;;;7.13
81177;BMP280;74095;48.270;14.200;2024-02-21T06:13:26;98702.25;;;7.04
81177;BMP280;74095;48.270;14.200;2024-02-21T06:15:58;98707.56;;;7.04
81177;BMP280;74095;48.270;14.200;2024-02-21T06:18:29;98698.94;;;6.92
81177;BMP280;74095;48.270;14.200;2024-02-21T06:20:58;98706.44;;;7.00
81177;BMP280;74095;48.270;14.200;2024-02-21T06:23:29;98712.88;;;7.04
81177;BMP280;74095;48.270;14.200;2024-02-21T06:26:02;98707.00;;;7.02
81177;BMP280;74095;48.270;14.200;2024-02-21T06:28:31;98707.03;;;7.07
81177;BMP280;74095;48.270;14.200;2024-02-21T06:31:00;98710.56;;;7.13
81177;BMP280;74095;48.270;14.200;2024-02-21T06:33:30;98721.41;;;7.11
81177;BMP280;74095;48.270;14.200;2024-02-21T06:36:00;98716.66;;;7.13
81177;BMP280;74095;48.270;14.200;2024-02-21T06:38:31;98718.38;;;7.25
81177;BMP280;74095;48.270;14.200;2024-02-21T06:41:04;98707.25;;;7.28
81177;BMP280;74095;48.270;14.200;2024-02-21T06:43:34;98701.41;;;7.31
81177;BMP280;74095;48.270;14.200;2024-02-21T06:46:03;98710.00;;;7.38
81177;BMP280;74095;48.270;14.200;2024-02-21T06:48:33;98718.88;;;7.48
81177;BMP280;74095;48.270;14.200;2024-02-21T06:51:05;98719.44;;;7.55
81177;BMP280;74095;48.270;14.200;2024-02-21T06:53:37;98721.84;;;7.57
81177;BMP280;74095;48.270;14.200;2024-02-21T06:56:06;98722.41;;;7.59
81177;BMP280;74095;48.270;14.200;2024-02-21T06:58:36;98711.50;;;7.60
81177;BMP280;74095;48.270;14.200;2024-02-21T07:01:05;98714.50;;;7.69
81177;BMP280;74095;48.270;14.200;2024-02-21T07:03:36;98714.81;;;7.72
81177;BMP280;74095;48.270;14.200;2024-02-21T07:06:06;98718.84;;;7.75
81177;BMP280;74095;48.270;14.200;2024-02-21T07:08:38;98707.34;;;7.69
81177;BMP280;74095;48.270;14.200;2024-02-21T07:11:09;98716.50;;;7.84
81177;BMP280;74095;48.270;14.200;2024-02-21T07:13:41;98709.56;;;7.88
81177;BMP280;74095;48.270;14.200;2024-02-21T07:16:15;98707.00;;;7.98
81177;BMP280;74095;48.270;14.200;2024-02-21T07:18:47;98699.88;;;8.03
81177;BMP280;74095;48.270;14.200;2024-02-21T07:21:20;98702.56;;;8.08
81177;BMP280;74095;48.270;14.200;2024-02-21T07:23:54;98697.81;;;8.15
81177;BMP280;74095;48.270;14.200;2024-02-21T07:26:24;98689.06;;;8.20
81177;BMP280;74095;48.270;14.200;2024-02-21T07:28:52;98695.25;;;8.31
81177;BMP280;74095;48.270;14.200;2024-02-21T07:31:21;98682.47;;;8.33
81177;BMP280;74095;48.270;14.200;2024-02-21T07:33:51;98695.59;;;8.54
81177;BMP280;74095;48.270;14.200;2024-02-21T07:36:32;98686.88;;;8.64
81177;BMP280;74095;48.270;14.200;2024-02-21T07:39:04;98680.19;;;8.61
81177;BMP280;74095;48.270;14.200;2024-02-21T07:41:35;98689.59;;;8.99
81177;BMP280;74095;48.270;14.200;2024-02-21T07:44:05;98685.66;;;9.32
81177;BMP280;74095;48.270;14.200;2024-02-21T07:46:32;98679.25;;;9.63
81177;BMP280;74095;48.270;14.200;2024-02-21T07:49:04;98677.91;;;9.66
81177;BMP280;74095;48.270;14.200;2024-02-21T07:51:38;98683.78;;;9.68
81177;BMP280;74095;48.270;14.200;2024-02-21T07:54:09;98688.28;;;9.88
81177;BMP280;74095;48.270;14.200;2024-02-21T07:56:39;98676.06;;;10.51
81177;BMP280;74095;48.270;14.200;2024-02-21T07:59:06;98674.00;;;11.20
81177;BMP280;74095;48.270;14.200;2024-02-21T08:01:33;98655.22;;;11.59
81177;BMP280;74095;48.270;14.200;2024-02-21T08:03:59;98658.84;;;11.97
81177;BMP280;74095;48.270;14.200;2024-02-21T08:06:25;98659.81;;;12.49
81177;BMP280;74095;48.270;14.200;2024-02-21T08:08:51;98656.00;;;13.19
81177;BMP280;74095;48.270;14.200;2024-02-21T08:11:17;98646.53;;;13.40
81177;BMP280;74095;48.270;14.200;2024-02-21T08:13:43;98634.38;;;13.29
81177;BMP280;74095;48.270;14.200;2024-02-21T08:16:08;98645.56;;;12.85
81177;BMP280;74095;48.270;14.200;2024-02-21T08:18:34;98646.69;;;12.66
81177;BMP280;74095;48.270;14.200;2024-02-21T08:21:04;98650.63;;;12.55
81177;BMP280;74095;48.270;14.200;2024-02-21T08:23:30;98651.13;;;11.91
81177;BMP280;74095;48.270;14.200;2024-02-21T08:25:55;98639.41;;;11.39
81177;BMP280;74095;48.270;14.200;2024-02-21T08:28:22;98639.25;;;11.25
81177;BMP280;74095;48.270;14.200;2024-02-21T08:30:48;98637.66;;;11.19
81177;BMP280;74095;48.270;14.200;2024-02-21T08:33:17;98642.06;;;11.10
81177;BMP280;74095;48.270;14.200;2024-02-21T08:35:42;98627.59;;;10.77
81177;BMP280;74095;48.270;14.200;2024-02-21T08:38:08;98639.31;;;10.82
81177;BMP280;74095;48.270;14.200;2024-02-21T08:40:34;98630.28;;;10.77
81177;BMP280;74095;48.270;14.200;2024-02-21T08:43:01;98632.63;;;10.84
81177;BMP280;74095;48.270;14.200;2024-02-21T08:45:27;98626.31;;;10.70
81177;BMP280;74095;48.270;14.200;2024-02-21T08:47:53;98634.81;;;10.77
81177;BMP280;74095;48.270;14.200;2024-02-21T08:50:18;98616.13;;;10.77
81177;BMP280;74095;48.270;14.200;2024-02-21T08:52:44;98632.88;;;10.88
81177;BMP280;74095;48.270;14.200;2024-02-21T08:55:10;98616.13;;;10.77
81177;BMP280;74095;48.270;14.200;2024-02-21T08:57:36;98617.13;;;10.86
81177;BMP280;74095;48.270;14.200;2024-02-21T09:00:04;98623.69;;;10.99
81177;BMP280;74095;48.270;14.200;2024-02-21T09:02:40;98620.72;;;11.05
81177;BMP280;74095;48.270;14.200;2024-02-21T09:05:06;98613.16;;;11.17
81177;BMP280;74095;48.270;14.200;2024-02-21T09:07:32;98621.81;;;11.33
81177;BMP280;74095;48.270;14.200;2024-02-21T09:09:58;98635.34;;;11.70
81177;BMP280;74095;48.270;14.200;2024-02-21T09:12:24;98633.13;;;12.20
81177;BMP280;74095;48.270;14.200;2024-02-21T09:14:50;98620.28;;;12.59
81177;BMP280;74095;48.270;14.200;2024-02-21T09:17:16;98615.91;;;12.63
81177;BMP280;74095;48.270;14.200;2024-02-21T09:19:49;98616.13;;;12.67
81177;BMP280;74095;48.270;14.200;2024-02-21T09:22:15;98612.50;;;12.58
81177;BMP280;74095;48.270;14.200;2024-02-21T09:24:41;98601.72;;;12.44
81177;BMP280;74095;48.270;14.200;2024-02-21T09:27:07;98598.28;;;12.44
81177;BMP280;74095;48.270;14.200;2024-02-21T09:29:33;98593.06;;;12.52
81177;BMP280;74095;48.270;14.200;2024-02-21T09:32:02;98599.41;;;12.56
81177;BMP280;74095;48.270;14.200;2024-02-21T09:34:29;98603.03;;;12.65
81177;BMP280;74095;48.270;14.200;2024-02-21T09:36:55;98602.88;;;12.57
81177;BMP280;74095;48.270;14.200;2024-02-21T09:39:20;98589.81;;;12.36
81177;BMP280;74095;48.270;14.200;2024-02-21T09:41:59;98596.16;;;12.22
81177;BMP280;74095;48.270;14.200;2024-02-21T09:44:36;98603.16;;;12.18
81177;BMP280;74095;48.270;14.200;2024-02-21T09:47:12;98603.97;;;12.18
81177;BMP280;74095;48.270;14.200;2024-02-21T09:49:40;98597.41;;;12.11
81177;BMP280;74095;48.270;14.200;2024-02-21T09:52:08;98600.16;;;12.01
81177;BMP280;74095;48.270;14.200;2024-02-21T09:54:35;98596.69;;;12.00
81177;BMP280;74095;48.270;14.200;2024-02-21T09:57:04;98604.91;;;12.09
81177;BMP280;74095;48.270;14.200;2024-02-21T09:59:32;98600.06;;;12.11
81177;BMP280;74095;48.270;14.200;2024-02-21T10:01:58;98590.94;;;12.12
81177;BMP280;74095;48.270;14.200;2024-02-21T10:04:29;98586.41;;;12.12
81177;BMP280;74095;48.270;14.200;2024-02-21T10:06:55;98581.59;;;12.33
81177;BMP280;74095;48.270;14.200;2024-02-21T10:09:22;98589.06;;;12.50
81177;BMP280;74095;48.270;14.200;2024-02-21T10:11:49;98584.19;;;12.70
81177;BMP280;74095;48.270;14.200;2024-02-21T10:14:16;98572.97;;;12.55
81177;BMP280;74095;48.270;14.200;2024-02-21T10:16:42;98580.91;;;12.41
81177;BMP280;74095;48.270;14.200;2024-02-21T10:19:19;98574.19;;;12.44
81177;BMP280;74095;48.270;14.200;2024-02-21T10:22:05;98585.47;;;12.59
81177;BMP280;74095;48.270;14.200;2024-02-21T10:24:37;98571.75;;;12.61
81177;BMP280;74095;48.270;14.200;2024-02-21T10:27:07;98582.81;;;12.73
81177;BMP280;74095;48.270;14.200;2024-02-21T10:29:35;98576.97;;;12.71
81177;BMP280;74095;48.270;14.200;2024-02-21T10:32:13;98566.13;;;12.62
81177;BMP280;74095;48.270;14.200;2024-02-21T10:34:41;98565.56;;;12.79
81177;BMP280;74095;48.270;14.200;2024-02-21T10:37:11;98558.06;;;12.81
81177;BMP280;74095;48.270;14.200;2024-02-21T10:39:41;98547.25;;;12.86
81177;BMP280;74095;48.270;14.200;2024-02-21T10:42:10;98545.16;;;12.97
81177;BMP280;74095;48.270;14.200;2024-02-21T10:44:38;98525.63;;;12.96
81177;BMP280;74095;48.270;14.200;2024-02-21T10:47:08;98522.34;;;12.99
81177;BMP280;74095;48.270;14.200;2024-02-21T10:49:38;98523.75;;;13.10
81177;BMP280;74095;48.270;14.200;2024-02-21T10:54:53;98522.75;;;13.06
81177;BMP280;74095;48.270;14.200;2024-02-21T10:57:22;98508.19;;;13.12
81177;BMP280;74095;48.270;14.200;2024-02-21T10:59:48;98509.25;;;13.11
81177;BMP280;74095;48.270;14.200;2024-02-21T11:02:15;98501.91;;;13.03
81177;BMP280;74095;48.270;14.200;2024-02-21T11:04:41;98491.56;;;13.10
81177;BMP280;74095;48.270;14.200;2024-02-21T11:07:08;98480.28;;;13.13
81177;BMP280;74095;48.270;14.200;2024-02-21T11:09:34;98473.34;;;13.26
81177;BMP280;74095;48.270;14.200;2024-02-21T11:12:04;98468.56;;;13.36
81177;BMP280;74095;48.270;14.200;2024-02-21T11:14:31;98471.53;;;13.35
81177;BMP280;74095;48.270;14.200;2024-02-21T11:16:58;98465.28;;;13.39
81177;BMP280;74095;48.270;14.200;2024-02-21T11:19:26;98464.09;;;13.45
81177;BMP280;74095;48.270;14.200;2024-02-21T11:21:53;98474.03;;;13.31
81177;BMP280;74095;48.270;14.200;2024-02-21T11:24:29;98445.75;;;13.25
81177;BMP280;74095;48.270;14.200;2024-02-21T11:26:56;98463.78;;;13.33
81177;BMP280;74095;48.270;14.200;2024-02-21T11:29:23;98455.16;;;13.36
81177;BMP280;74095;48.270;14.200;2024-02-21T11:31:51;98455.06;;;13.28
81177;BMP280;74095;48.270;14.200;2024-02-21T11:34:18;98449.34;;;13.21
81177;BMP280;74095;48.270;14.200;2024-02-21T11:36:52;98442.84;;;13.22
81177;BMP280;74095;48.270;14.200;2024-02-21T11:39:23;98435.31;;;13.37
81177;BMP280;74095;48.270;14.200;2024-02-21T11:42:06;98440.91;;;13.49
81177;BMP280;74095;48.270;14.200;2024-02-21T11:44:36;98441.66;;;13.41
81177;BMP280;74095;48.270;14.200;2024-02-21T11:47:04;98433.00;;;13.44
81177;BMP280;74095;48.270;14.200;2024-02-21T11:49:30;98443.94;;;13.34
81177;BMP280;74095;48.270;14.200;2024-02-21T11:52:03;98447.31;;;13.40
81177;BMP280;74095;48.270;14.200;2024-02-21T11:54:33;98433.94;;;13.26
81177;BMP280;74095;48.270;14.200;2024-02-21T11:57:00;98430.53;;;13.34
81177;BMP280;74095;48.270;14.200;2024-02-21T11:59:26;98421.06;;;13.50
81177;BMP280;74095;48.270;14.200;2024-02-21T12:01:53;98409.13;;;13.57
81177;BMP280;74095;48.270;14.200;2024-02-21T12:04:20;98406.81;;;13.64
81177;BMP280;74095;48.270;14.200;2024-02-21T12:06:46;98409.00;;;13.62
81177;BMP280;74095;48.270;14.200;2024-02-21T12:09:18;98403.75;;;13.57
81177;BMP280;74095;48.270;14.200;2024-02-21T12:11:45;98395.97;;;13.69
81177;BMP280;74095;48.270;14.200;2024-02-21T12:14:16;98398.56;;;13.96
81177;BMP280;74095;48.270;14.200;2024-02-21T12:16:42;98383.63;;;14.12
81177;BMP280;74095;48.270;14.200;2024-02-21T12:19:13;98379.81;;;14.35
81177;BMP280;74095;48.270;14.200;2024-02-21T12:21:39;98379.19;;;14.38
81177;BMP280;74095;48.270;14.200;2024-02-21T12:24:21;98378.78;;;14.53
81177;BMP280;74095;48.270;14.200;2024-02-21T12:26:47;98368.66;;;14.50
81177;BMP280;74095;48.270;14.200;2024-02-21T12:29:13;98374.38;;;14.57
81177;BMP280;74095;48.270;14.200;2024-02-21T12:31:39;98363.94;;;14.64
81177;BMP280;74095;48.270;14.200;2024-02-21T12:34:05;98354.34;;;14.72
81177;BMP280;74095;48.270;14.200;2024-02-21T12:36:36;98348.78;;;14.51
81177;BMP280;74095;48.270;14.200;2024-02-21T12:39:02;98343.41;;;14.51
81177;BMP280;74095;48.270;14.200;2024-02-21T12:41:30;98341.47;;;14.43
81177;BMP280;74095;48.270;14.200;2024-02-21T12:43:57;98342.88;;;14.41
81177;BMP280;74095;48.270;14.200;2024-02-21T12:46:23;98334.84;;;14.49
81177;BMP280;74095;48.270;14.200;2024-02-21T12:48:50;98333.91;;;14.45
81177;BMP280;74095;48.270;14.200;2024-02-21T12:51:16;98326.97;;;14.22
81177;BMP280;74095;48.270;14.200;2024-02-21T12:53:48;98320.06;;;13.99
81177;BMP280;74095;48.270;14.200;2024-02-21T12:56:15;98322.84;;;14.07
81177;BMP280;74095;48.270;14.200;2024-02-21T12:58:42;98299.25;;;13.96
81177;BMP280;74095;48.270;14.200;2024-02-21T13:01:08;98301.69;;;14.15
81177;BMP280;74095;48.270;14.200;2024-02-21T13:03:34;98286.25;;;14.20
81177;BMP280;74095;48.270;14.200;2024-02-21T13:05:59;98283.56;;;14.20
81177;BMP280;74095;48.270;14.200;2024-02-21T13:08:25;98277.56;;;14.23
81177;BMP280;74095;48.270;14.200;2024-02-21T13:10:51;98279.16;;;14.24
81177;BMP280;74095;48.270;14.200;2024-02-21T13:13:17;98278.06;;;14.25
81177;BMP280;74095;48.270;14.200;2024-02-21T13:15:44;98267.19;;;14.30
81177;BMP280;74095;48.270;14.200;2024-02-21T13:18:10;98276.19;;;14.34
81177;BMP280;74095;48.270;14.200;2024-02-21T13:20:36;98266.44;;;14.47
81177;BMP280;74095;48.270;14.200;2024-02-21T13:23:03;98262.31;;;14.41
81177;BMP280;74095;48.270;14.200;2024-02-21T13:25:29;98244.31;;;14.41
81177;BMP280;74095;48.270;14.200;2024-02-21T13:27:55;98240.03;;;14.40
81177;BMP280;74095;48.270;14.200;2024-02-21T13:30:22;98233.56;;;14.50
81177;BMP280;74095;48.270;14.200;2024-02-21T13:32:48;98230.22;;;14.53
81177;BMP280;74095;48.270;14.200;2024-02-21T13:35:14;98225.22;;;14.51
81177;BMP280;74095;48.270;14.200;2024-02-21T13:37:41;98231.84;;;14.45
81177;BMP280;74095;48.270;14.200;2024-02-21T13:40:07;98224.09;;;14.44
81177;BMP280;74095;48.270;14.200;2024-02-21T13:42:37;98217.75;;;14.40
81177;BMP280;74095;48.270;14.200;2024-02-21T13:45:04;98202.44;;;14.40
81177;BMP280;74095;48.270;14.200;2024-02-21T13:47:33;98206.53;;;14.46
81177;BMP280;74095;48.270;14.200;2024-02-21T13:49:59;98204.50;;;14.52
81177;BMP280;74095;48.270;14.200;2024-02-21T13:52:25;98204.38;;;14.57
81177;BMP280;74095;48.270;14.200;2024-02-21T13:54:52;98194.09;;;14.50
81177;BMP280;74095;48.270;14.200;2024-02-21T13:57:18;98197.72;;;14.54
81177;BMP280;74095;48.270;14.200;2024-02-21T13:59:44;98198.63;;;14.58
81177;BMP280;74095;48.270;14.200;2024-02-21T14:02:10;98173.06;;;14.44
81177;BMP280;74095;48.270;14.200;2024-02-21T14:04:36;98186.78;;;14.59
81177;BMP280;74095;48.270;14.200;2024-02-21T14:07:01;98181.59;;;14.54
81177;BMP280;74095;48.270;14.200;2024-02-21T14:09:28;98178.44;;;14.61
81177;BMP280;74095;48.270;14.200;2024-02-21T14:11:57;98167.06;;;14.55
81177;BMP280;74095;48.270;14.200;2024-02-21T14:14:23;98176.53;;;14.61